createdAt,value
2018-07-11T00:00:56.022Z,2.50
2018-07-11T00:03:34.866Z,2.27
2018-07-11T00:06:02.485Z,2.13
2018-07-11T00:08:30.116Z,2.40
2018-07-11T00:10:57.844Z,2.23
2018-07-11T00:13:25.594Z,2.20
2018-07-11T00:15:53.532Z,1.93
2018-07-11T00:18:21.512Z,2.67
2018-07-11T00:20:49.504Z,2.50
2018-07-11T00:23:17.542Z,2.50
2018-07-11T00:25:45.557Z,2.53
2018-07-11T00:28:13.600Z,2.60
2018-07-11T00:30:41.671Z,2.60
2018-07-11T00:33:09.761Z,2.20
2018-07-11T00:35:37.773Z,2.47
2018-07-11T00:38:05.812Z,2.87
2018-07-11T00:40:33.835Z,3.10
2018-07-11T00:43:02.105Z,4.40
2018-07-11T00:45:29.860Z,3.73
2018-07-11T00:47:57.909Z,3.30
2018-07-11T00:50:25.918Z,4.00
2018-07-11T00:52:54.006Z,4.33
2018-07-11T00:55:21.968Z,3.17
2018-07-11T00:57:50.146Z,3.67
2018-07-11T01:00:18.250Z,3.43
2018-07-11T01:02:46.658Z,3.53
2018-07-11T01:05:14.677Z,3.23
2018-07-11T01:07:43.336Z,3.27
2018-07-11T01:10:11.429Z,3.10
2018-07-11T01:12:39.445Z,3.60
2018-07-11T01:15:07.629Z,3.30
2018-07-11T01:17:41.094Z,3.70
2018-07-11T01:20:09.192Z,3.97
2018-07-11T01:22:37.101Z,3.43
2018-07-11T01:25:05.095Z,3.57
2018-07-11T01:27:33.069Z,3.17
2018-07-11T01:30:01.004Z,3.57
2018-07-11T01:32:28.902Z,4.03
2018-07-11T01:34:56.825Z,3.63
2018-07-11T01:37:24.846Z,4.53
2018-07-11T01:39:52.796Z,4.33
2018-07-11T01:42:20.774Z,4.83
2018-07-11T01:44:48.801Z,4.83
2018-07-11T01:47:16.793Z,4.70
2018-07-11T01:49:44.844Z,5.53
2018-07-11T01:52:23.958Z,5.67
2018-07-11T01:54:51.945Z,5.40
2018-07-11T01:57:19.847Z,9.73
2018-07-11T01:59:47.869Z,5.77
2018-07-11T02:02:16.041Z,5.17
2018-07-11T02:04:44.032Z,6.00
2018-07-11T02:07:12.223Z,6.63
2018-07-11T02:09:40.882Z,6.53
2018-07-11T02:12:08.923Z,7.67
2018-07-11T02:14:37.592Z,7.40
2018-07-11T02:17:05.694Z,7.73
2018-07-11T02:19:33.702Z,7.30
2018-07-11T02:22:01.765Z,9.27
2018-07-11T02:24:29.778Z,7.97
2018-07-11T02:26:57.766Z,14.13
2018-07-11T02:29:25.959Z,8.57
2018-07-11T02:31:53.984Z,11.70
2018-07-11T02:34:27.552Z,8.87
2018-07-11T02:36:55.446Z,8.93
2018-07-11T02:39:23.378Z,8.60
2018-07-11T02:41:51.366Z,8.73
2018-07-11T02:44:19.462Z,12.50
2018-07-11T02:46:52.922Z,9.40
2018-07-11T02:49:20.934Z,8.23
2018-07-11T02:51:48.987Z,8.93
2018-07-11T02:54:17.299Z,7.53
2018-07-11T02:56:45.287Z,8.37
2018-07-11T02:59:13.271Z,8.53
2018-07-11T03:01:41.272Z,8.67
2018-07-11T03:04:09.243Z,8.40
2018-07-11T03:06:37.274Z,8.80
2018-07-11T03:09:05.362Z,7.70
2018-07-11T03:11:33.310Z,7.83
2018-07-11T03:14:01.346Z,8.43
2018-07-11T03:16:29.246Z,7.90
2018-07-11T03:18:57.504Z,8.63
2018-07-11T03:21:25.486Z,8.93
2018-07-11T03:23:53.464Z,8.60
2018-07-11T03:26:21.728Z,9.03
2018-07-11T03:28:49.749Z,9.13
2018-07-11T03:31:17.685Z,8.70
2018-07-11T03:33:45.712Z,9.80
2018-07-11T03:36:13.702Z,8.13
2018-07-11T03:38:41.666Z,9.50
2018-07-11T03:41:09.740Z,9.00
2018-07-11T03:43:37.698Z,8.00
2018-07-11T03:46:05.755Z,8.67
2018-07-11T03:48:33.735Z,9.07
2018-07-11T03:51:01.709Z,8.67
2018-07-11T03:53:29.717Z,8.83
2018-07-11T03:55:57.666Z,9.00
2018-07-11T03:58:25.529Z,9.03
2018-07-11T04:00:53.515Z,9.10
2018-07-11T04:03:21.512Z,10.00
2018-07-11T04:05:49.446Z,9.00
2018-07-11T04:08:17.406Z,9.53
2018-07-11T04:10:45.354Z,8.97
2018-07-11T04:13:17.330Z,9.33
2018-07-11T04:15:45.321Z,9.83
2018-07-11T04:18:20.568Z,9.60
2018-07-11T04:20:48.562Z,9.57
2018-07-11T04:23:16.453Z,9.97
2018-07-11T04:25:44.410Z,10.67
2018-07-11T04:28:12.517Z,10.80
2018-07-11T04:30:40.507Z,10.47
2018-07-11T04:33:08.510Z,10.67
2018-07-11T04:35:36.527Z,10.00
2018-07-11T04:38:04.580Z,10.87
2018-07-11T04:40:32.762Z,10.07
2018-07-11T04:43:00.873Z,10.47
2018-07-11T04:45:28.846Z,10.23
2018-07-11T04:47:56.910Z,10.33
2018-07-11T04:50:25.001Z,10.57
2018-07-11T04:52:53.241Z,9.53
2018-07-11T04:55:22.051Z,10.43
2018-07-11T04:57:50.073Z,9.87
2018-07-11T05:00:18.050Z,10.20
2018-07-11T05:02:45.999Z,10.27
2018-07-11T05:05:13.979Z,10.27
2018-07-11T05:07:41.930Z,10.53
2018-07-11T05:10:09.861Z,10.10
2018-07-11T05:12:37.773Z,10.03
2018-07-11T05:15:05.686Z,10.20
2018-07-11T05:17:33.605Z,12.30
2018-07-11T05:20:01.616Z,11.47
2018-07-11T05:22:29.503Z,11.83
2018-07-11T05:24:57.416Z,12.03
2018-07-11T05:27:25.234Z,11.80
2018-07-11T05:29:53.124Z,11.30
2018-07-11T05:32:21.101Z,11.07
2018-07-11T05:34:49.202Z,11.17
2018-07-11T05:37:17.132Z,11.50
2018-07-11T05:39:45.066Z,11.10
2018-07-11T05:42:13.087Z,12.27
2018-07-11T05:44:41.022Z,10.40
2018-07-11T05:47:08.936Z,11.10
2018-07-11T05:49:36.902Z,11.13
2018-07-11T05:52:04.877Z,12.00
2018-07-11T05:54:34.174Z,13.83
2018-07-11T05:57:02.558Z,13.83
2018-07-11T05:59:30.777Z,13.67
2018-07-11T06:01:58.986Z,13.33
2018-07-11T06:04:26.966Z,14.77
2018-07-11T06:06:55.017Z,14.50
2018-07-11T06:09:22.939Z,14.53
2018-07-11T06:11:50.823Z,16.13
2018-07-11T06:14:18.825Z,15.77
2018-07-11T06:16:46.761Z,13.90
2018-07-11T06:19:14.702Z,13.83
2018-07-11T06:21:45.641Z,13.90
2018-07-11T06:24:13.563Z,12.17
2018-07-11T06:26:41.616Z,12.53
2018-07-11T06:29:09.532Z,12.57
2018-07-11T06:31:37.412Z,13.27
2018-07-11T06:34:05.293Z,13.77
2018-07-11T06:36:33.244Z,14.27
2018-07-11T06:39:01.171Z,13.83
2018-07-11T06:41:29.118Z,14.17
2018-07-11T06:43:57.025Z,13.10
2018-07-11T06:46:24.938Z,12.07
2018-07-11T06:48:52.841Z,13.57
2018-07-11T06:51:20.657Z,12.10
2018-07-11T06:53:48.528Z,13.60
2018-07-11T06:56:16.455Z,12.93
2018-07-11T06:58:44.410Z,12.47
2018-07-11T07:01:12.331Z,11.33
2018-07-11T07:03:40.425Z,10.13
2018-07-11T07:06:08.257Z,11.73
2018-07-11T07:08:36.216Z,11.90
2018-07-11T07:11:04.142Z,10.93
2018-07-11T07:13:32.101Z,10.47
2018-07-11T07:16:00.068Z,10.03
2018-07-11T07:18:27.983Z,7.67
2018-07-11T07:20:55.857Z,11.00
2018-07-11T07:23:23.735Z,10.17
2018-07-11T07:25:51.623Z,9.80
2018-07-11T07:28:19.494Z,8.97
2018-07-11T07:30:47.375Z,7.63
2018-07-11T07:33:15.349Z,5.00
2018-07-11T07:35:43.579Z,5.30
2018-07-11T07:38:11.643Z,4.10
2018-07-11T07:40:39.565Z,5.03
2018-07-11T07:43:07.439Z,4.17
2018-07-11T07:45:35.485Z,3.93
2018-07-11T07:48:03.360Z,4.30
2018-07-11T07:50:31.347Z,4.70
2018-07-11T07:52:59.300Z,4.75
2018-07-11T07:55:27.263Z,4.17
2018-07-11T07:57:55.281Z,5.30
2018-07-11T08:00:23.235Z,4.70
2018-07-11T08:02:51.127Z,3.92
2018-07-11T08:05:19.159Z,4.40
2018-07-11T08:07:47.045Z,4.67
2018-07-11T08:10:14.999Z,4.87
2018-07-11T08:12:42.870Z,3.95
2018-07-11T08:15:10.672Z,4.33
2018-07-11T08:17:38.519Z,5.42
2018-07-11T08:20:08.732Z,6.53
2018-07-11T08:23:13.697Z,6.47
2018-07-11T08:25:54.068Z,6.40
2018-07-11T08:30:35.630Z,4.75
2018-07-11T08:33:14.633Z,4.50
2018-07-11T08:37:56.008Z,4.70
2018-07-11T08:42:40.590Z,5.00
2018-07-11T08:45:31.547Z,5.58
2018-07-11T08:48:10.135Z,4.17
2018-07-11T08:51:46.671Z,3.62
2018-07-11T08:54:28.194Z,3.83
2018-07-11T08:57:12.389Z,3.60
2018-07-11T08:59:58.479Z,4.28
2018-07-11T09:02:39.198Z,2.98
2018-07-11T09:08:29.120Z,3.35
2018-07-11T09:11:08.095Z,3.50
2018-07-11T09:13:48.863Z,3.62
2018-07-11T09:17:42.974Z,3.45
2018-07-11T09:20:29.512Z,3.37
2018-07-11T09:23:08.849Z,2.60
2018-07-11T09:25:36.690Z,3.72
2018-07-11T09:28:04.622Z,3.25
2018-07-11T09:30:32.605Z,3.15
2018-07-11T09:33:00.610Z,2.90
2018-07-11T09:35:28.526Z,3.10
2018-07-11T09:37:56.607Z,3.10
2018-07-11T09:40:24.530Z,3.37
2018-07-11T09:42:52.628Z,3.85
2018-07-11T09:45:20.819Z,3.80
2018-07-11T09:47:48.750Z,3.08
2018-07-11T09:50:16.737Z,3.27
2018-07-11T09:52:44.765Z,2.77
2018-07-11T09:55:12.645Z,3.15
2018-07-11T09:57:40.689Z,3.27
2018-07-11T10:00:13.133Z,2.50
2018-07-11T10:02:41.224Z,1.90
2018-07-11T10:05:09.233Z,2.15
2018-07-11T10:07:37.272Z,2.30
2018-07-11T10:10:05.154Z,2.00
2018-07-11T10:12:33.174Z,2.45
2018-07-11T10:15:01.101Z,2.22
2018-07-11T10:17:29.683Z,2.45
2018-07-11T10:19:58.379Z,2.20
2018-07-11T10:22:26.223Z,2.22
2018-07-11T10:24:54.233Z,2.33
2018-07-11T10:27:22.166Z,2.70
2018-07-11T10:29:50.137Z,2.80
2018-07-11T10:32:18.116Z,2.80
2018-07-11T10:34:46.098Z,2.25
2018-07-11T10:37:14.268Z,2.50
2018-07-11T10:39:42.841Z,2.80
2018-07-11T10:42:10.735Z,3.00
2018-07-11T10:44:38.638Z,2.98
2018-07-11T10:47:11.922Z,2.77
2018-07-11T10:49:40.130Z,3.70
2018-07-11T10:52:08.451Z,3.02
2018-07-11T10:54:36.212Z,3.02
2018-07-11T10:57:04.251Z,3.55
2018-07-11T10:59:32.200Z,3.00
2018-07-11T11:02:00.254Z,3.03
2018-07-11T11:04:28.378Z,2.10
2018-07-11T11:06:56.437Z,2.80
2018-07-11T11:09:24.557Z,3.00
2018-07-11T11:11:52.540Z,3.10
2018-07-11T11:14:20.504Z,2.27
2018-07-11T11:16:48.470Z,2.90
2018-07-11T11:19:16.438Z,4.12
2018-07-11T11:21:44.471Z,3.15
2018-07-11T11:24:12.328Z,2.77
2018-07-11T11:26:40.225Z,3.42
2018-07-11T11:29:08.199Z,3.65
2018-07-11T11:31:36.038Z,3.27
2018-07-11T11:34:10.706Z,3.35
2018-07-11T11:36:38.712Z,3.27
2018-07-11T11:39:06.603Z,3.15
2018-07-11T11:41:34.753Z,3.45
2018-07-11T11:44:03.291Z,3.17
2018-07-11T11:46:31.279Z,2.70
2018-07-11T11:48:59.237Z,2.75
2018-07-11T11:51:27.252Z,2.85
2018-07-11T11:53:55.225Z,3.35
2018-07-11T11:56:23.215Z,3.12
2018-07-11T11:58:51.194Z,2.98
2018-07-11T12:01:19.203Z,3.17
2018-07-11T12:03:47.122Z,3.52
2018-07-11T12:06:15.339Z,3.20
2018-07-11T12:08:43.390Z,3.33
2018-07-11T12:11:11.314Z,3.33
2018-07-11T12:13:39.208Z,2.50
2018-07-11T12:16:07.276Z,3.63
2018-07-11T12:18:35.374Z,3.20
2018-07-11T12:21:03.454Z,3.10
2018-07-11T12:23:31.410Z,3.10
2018-07-11T12:26:06.067Z,3.47
2018-07-11T12:28:34.199Z,3.70
2018-07-11T12:31:02.479Z,3.50
2018-07-11T12:33:30.875Z,3.27
2018-07-11T12:35:59.716Z,3.40
2018-07-11T12:38:29.248Z,3.57
2018-07-11T12:40:57.277Z,3.20
2018-07-11T12:43:26.226Z,3.30
2018-07-11T12:45:54.534Z,3.80
2018-07-11T12:48:28.018Z,3.47
2018-07-11T12:50:56.802Z,3.40
2018-07-11T12:53:24.941Z,3.37
2018-07-11T12:55:52.952Z,3.87
2018-07-11T12:58:20.974Z,3.43
2018-07-11T13:00:49.358Z,3.63
2018-07-11T13:03:17.383Z,3.00
2018-07-11T13:05:45.411Z,4.07
2018-07-11T13:08:14.215Z,3.83
2018-07-11T13:10:42.178Z,4.30
2018-07-11T13:13:10.205Z,4.10
2018-07-11T13:15:37.928Z,4.10
2018-07-11T13:18:05.829Z,4.40
2018-07-11T13:20:33.781Z,4.53
2018-07-11T13:23:02.403Z,4.77
2018-07-11T13:25:30.341Z,4.07
2018-07-11T13:27:58.218Z,4.00
2018-07-11T13:30:26.205Z,4.10
2018-07-11T13:32:54.171Z,4.13
2018-07-11T13:35:22.133Z,3.23
2018-07-11T13:37:50.114Z,4.23
2018-07-11T13:40:18.101Z,4.50
2018-07-11T13:42:45.966Z,4.50
2018-07-11T13:45:13.808Z,4.73
2018-07-11T13:47:41.675Z,4.27
2018-07-11T13:50:09.530Z,4.33
2018-07-11T13:52:37.540Z,4.63
2018-07-11T13:55:06.156Z,4.40
2018-07-11T13:57:34.174Z,3.90
2018-07-11T14:00:02.216Z,4.00
2018-07-11T14:02:30.413Z,5.13
2018-07-11T14:04:58.366Z,7.83
2018-07-11T14:07:26.460Z,8.63
2018-07-11T14:09:54.356Z,10.23
2018-07-11T14:12:22.219Z,11.53
2018-07-11T14:14:50.180Z,12.47
2018-07-11T14:17:18.149Z,13.10
2018-07-11T14:19:46.094Z,15.40
2018-07-11T14:22:14.023Z,12.73
2018-07-11T14:24:42.046Z,13.73
2018-07-11T14:27:10.034Z,13.60
2018-07-11T14:29:38.105Z,14.80
2018-07-11T14:32:06.687Z,16.23
2018-07-11T14:34:34.608Z,12.83
2018-07-11T14:37:03.087Z,12.60
2018-07-11T14:39:31.029Z,11.90
2018-07-11T14:41:58.899Z,12.07
2018-07-11T14:44:26.970Z,11.47
2018-07-11T14:46:54.831Z,11.63
2018-07-11T14:49:22.975Z,11.83
2018-07-11T14:51:51.035Z,13.53
2018-07-11T14:54:19.114Z,12.50
2018-07-11T14:56:47.049Z,12.03
2018-07-11T14:59:15.004Z,10.10
2018-07-11T15:01:42.697Z,9.43
2018-07-11T15:04:10.695Z,9.97
2018-07-11T15:06:38.691Z,8.73
2018-07-11T15:09:06.832Z,8.53
2018-07-11T15:11:35.036Z,7.93
2018-07-11T15:14:03.135Z,8.83
2018-07-11T15:16:31.090Z,8.33
2018-07-11T15:18:59.985Z,9.03
2018-07-11T15:21:29.072Z,8.70
2018-07-11T15:23:57.024Z,10.23
2018-07-11T15:26:25.933Z,12.17
2018-07-11T15:28:54.217Z,13.83
2018-07-11T15:31:22.753Z,15.87
2018-07-11T15:33:52.230Z,17.10
2018-07-11T15:36:20.402Z,19.60
2018-07-11T15:38:48.453Z,23.10
2018-07-11T15:41:16.983Z,28.20
2018-07-11T15:43:45.744Z,35.63
2018-07-11T15:46:13.913Z,36.53
2018-07-11T15:48:41.973Z,33.63
2018-07-11T15:51:10.111Z,28.60
2018-07-11T15:53:38.318Z,33.10
2018-07-11T15:56:06.410Z,30.40
2018-07-11T15:58:37.695Z,22.13
2018-07-11T16:01:08.810Z,22.87
2018-07-11T16:03:43.756Z,16.23
2018-07-11T16:06:11.826Z,22.70
2018-07-11T16:08:45.415Z,22.27
2018-07-11T16:11:13.716Z,21.17
2018-07-11T16:13:41.894Z,18.63
2018-07-11T16:16:09.983Z,26.60
2018-07-11T16:18:38.197Z,19.07
2018-07-11T16:21:06.221Z,18.37
2018-07-11T16:23:34.303Z,19.17
2018-07-11T16:26:02.651Z,18.30
2018-07-11T16:28:30.673Z,24.10
2018-07-11T16:30:58.619Z,23.30
2018-07-11T16:33:26.600Z,28.13
2018-07-11T16:35:54.548Z,26.87
2018-07-11T16:38:22.554Z,24.83
2018-07-11T16:40:51.576Z,23.93
2018-07-11T16:43:19.644Z,26.93
2018-07-11T16:45:47.701Z,24.97
2018-07-11T16:48:15.896Z,31.63
2018-07-11T16:50:44.010Z,33.77
2018-07-11T16:53:12.053Z,35.43
2018-07-11T16:55:40.117Z,37.27
2018-07-11T16:58:09.879Z,42.50
2018-07-11T17:00:37.917Z,38.77
2018-07-11T17:03:09.896Z,40.87
2018-07-11T17:05:49.335Z,39.60
2018-07-11T17:08:32.067Z,40.50
2018-07-11T17:11:19.470Z,37.13
2018-07-11T17:13:54.890Z,33.63
2018-07-11T17:16:24.015Z,36.53
2018-07-11T17:18:55.894Z,37.90
2018-07-11T17:21:33.053Z,38.90
2018-07-11T17:24:07.228Z,43.53
2018-07-11T17:26:40.213Z,35.83
2018-07-11T17:29:09.991Z,31.70
2018-07-11T17:31:38.006Z,31.20
2018-07-11T17:34:05.989Z,31.90
2018-07-11T17:36:35.572Z,37.23
2018-07-11T17:39:05.226Z,34.40
2018-07-11T17:41:33.984Z,31.37
2018-07-11T17:44:03.296Z,33.77
2018-07-11T17:46:32.688Z,32.37
2018-07-11T17:49:13.902Z,33.40
2018-07-11T17:51:46.648Z,40.27
2018-07-11T17:54:14.695Z,35.83
2018-07-11T17:56:48.105Z,40.53
2018-07-11T17:59:18.692Z,41.27
2018-07-11T18:01:52.697Z,38.80
2018-07-11T18:04:31.851Z,39.80
2018-07-11T18:07:02.226Z,41.77
2018-07-11T18:10:08.181Z,41.63
2018-07-11T18:13:14.402Z,36.00
2018-07-11T18:15:57.746Z,34.93
2018-07-11T18:18:35.032Z,36.07
2018-07-11T18:21:10.493Z,39.37
2018-07-11T18:23:49.548Z,38.93
2018-07-11T18:28:32.593Z,35.27
2018-07-11T18:33:45.366Z,33.03
2018-07-11T18:38:30.178Z,34.73
2018-07-11T18:41:07.465Z,35.57
2018-07-11T18:45:58.787Z,31.27
2018-07-11T18:49:37.270Z,32.83
2018-07-11T18:52:28.624Z,30.87
2018-07-11T18:56:06.494Z,35.17
2018-07-11T19:00:50.249Z,35.27
2018-07-11T19:03:42.559Z,36.50
2018-07-11T19:07:19.149Z,34.33
2018-07-11T19:09:53.740Z,32.33
2018-07-11T19:12:36.150Z,33.37
2018-07-11T19:15:11.773Z,41.07
2018-07-11T19:18:05.306Z,41.70
2018-07-11T19:22:46.630Z,39.43
2018-07-11T19:25:32.756Z,44.47
2018-07-11T19:28:11.694Z,41.13
2018-07-11T19:31:51.765Z,50.07
2018-07-11T19:34:29.001Z,39.40
2018-07-11T19:37:01.936Z,34.57
2018-07-11T19:39:45.782Z,34.10
2018-07-11T19:45:27.539Z,39.83
2018-07-11T19:48:12.042Z,35.83
2018-07-11T19:57:12.110Z,25.73
2018-07-11T19:59:40.165Z,27.20
2018-07-11T20:02:08.104Z,27.67
2018-07-11T20:04:36.230Z,30.23
2018-07-11T20:07:04.294Z,32.07
2018-07-11T20:09:32.281Z,30.37
2018-07-11T20:12:00.690Z,32.67
2018-07-11T20:14:28.778Z,41.83
2018-07-11T20:16:57.789Z,31.27
2018-07-11T20:19:25.823Z,38.87
2018-07-11T20:21:53.945Z,34.73
2018-07-11T20:24:22.043Z,35.63
2018-07-11T20:26:50.190Z,38.87
2018-07-11T20:29:18.217Z,40.73
2018-07-11T20:31:46.330Z,42.63
2018-07-11T20:34:14.245Z,37.20
2018-07-11T20:36:42.145Z,32.47
2018-07-11T20:39:11.255Z,33.47
2018-07-11T20:41:39.330Z,38.13
2018-07-11T20:44:08.956Z,39.80
2018-07-11T20:46:37.077Z,34.80
2018-07-11T20:49:10.589Z,35.43
2018-07-11T20:51:39.058Z,35.30
2018-07-11T20:54:07.063Z,38.33
2018-07-11T20:56:35.011Z,27.70
2018-07-11T21:00:12.790Z,25.10
2018-07-11T21:02:51.808Z,25.77
2018-07-11T21:07:35.258Z,25.93
2018-07-11T21:12:21.687Z,27.03
2018-07-11T21:14:59.072Z,32.70
2018-07-11T21:18:42.789Z,27.40
2018-07-11T21:21:11.075Z,28.77
2018-07-11T21:23:39.100Z,31.23
2018-07-11T21:26:07.000Z,32.00
2018-07-11T21:28:34.975Z,35.53
2018-07-11T21:31:03.071Z,29.37
2018-07-11T21:33:31.132Z,27.63
2018-07-11T21:35:59.068Z,22.27
2018-07-11T21:38:27.016Z,22.83
2018-07-11T21:40:54.895Z,20.60
2018-07-11T21:43:23.095Z,24.50
2018-07-11T21:45:51.001Z,20.30
2018-07-11T21:48:18.932Z,20.90
2018-07-11T21:50:47.103Z,22.47
2018-07-11T21:53:15.135Z,23.17
2018-07-11T21:55:43.061Z,22.83
2018-07-11T21:58:32.407Z,26.77
2018-07-11T22:04:02.631Z,26.50
2018-07-11T22:09:05.558Z,24.23
2018-07-11T22:11:33.488Z,26.60
2018-07-11T22:14:01.608Z,27.30
2018-07-11T22:16:29.591Z,25.50
2018-07-11T22:18:57.599Z,25.23
2018-07-11T22:21:24.348Z,23.63
2018-07-11T22:23:51.088Z,25.63
2018-07-11T22:26:17.692Z,25.77
2018-07-11T22:28:44.383Z,26.47
2018-07-11T22:31:10.999Z,26.77
2018-07-11T22:33:37.767Z,26.73
2018-07-11T22:36:04.475Z,26.77
2018-07-11T22:38:31.087Z,29.17
2018-07-11T22:40:57.767Z,27.73
2018-07-11T22:43:24.502Z,26.40
2018-07-11T22:45:51.302Z,26.20
2018-07-11T22:48:17.973Z,24.17
2018-07-11T22:50:44.613Z,23.67
2018-07-11T22:53:11.295Z,26.97
2018-07-11T22:55:37.984Z,26.60
2018-07-11T22:58:04.675Z,25.60
2018-07-11T23:00:31.371Z,24.67
2018-07-11T23:02:58.031Z,24.27
2018-07-11T23:05:24.717Z,25.27
2018-07-11T23:07:51.508Z,24.80
2018-07-11T23:10:18.176Z,24.27
2018-07-11T23:12:44.853Z,26.03
2018-07-11T23:15:11.531Z,24.90
2018-07-11T23:17:38.198Z,26.17
2018-07-11T23:20:04.895Z,25.93
2018-07-11T23:22:31.580Z,27.30
2018-07-11T23:24:58.241Z,26.53
2018-07-11T23:27:24.913Z,25.90
2018-07-11T23:29:51.632Z,27.50
2018-07-11T23:32:18.417Z,27.63
2018-07-11T23:40:44.250Z,31.17
2018-07-11T23:43:10.895Z,27.07
2018-07-11T23:45:37.551Z,31.50
2018-07-11T23:48:04.156Z,32.13
2018-07-11T23:50:30.861Z,34.03
2018-07-11T23:52:57.498Z,31.67
2018-07-11T23:55:24.210Z,35.93
2018-07-11T23:57:50.893Z,32.23
